createdAt,value
2017-06-04T00:01:11.168Z,90.80
2017-06-04T00:03:38.199Z,89.50
2017-06-04T00:06:04.473Z,89.40
2017-06-04T00:08:30.729Z,89.00
2017-06-04T00:10:57.368Z,89.60
2017-06-04T00:13:23.612Z,89.10
2017-06-04T00:15:49.897Z,89.20
2017-06-04T00:18:16.132Z,90.20
2017-06-04T00:20:42.427Z,89.90
2017-06-04T00:23:09.792Z,90.10
2017-06-04T00:25:36.772Z,90.00
2017-06-04T00:28:03.114Z,89.90
2017-06-04T00:30:29.380Z,89.50
2017-06-04T00:32:55.623Z,90.30
2017-06-04T00:35:22.413Z,90.10
2017-06-04T00:37:48.692Z,89.70
2017-06-04T00:40:14.928Z,89.80
2017-06-04T00:42:41.948Z,90.00
2017-06-04T00:45:08.226Z,90.00
2017-06-04T00:47:34.892Z,90.20
2017-06-04T00:50:01.175Z,90.50
2017-06-04T00:52:28.151Z,90.20
2017-06-04T00:54:54.440Z,90.10
2017-06-04T00:57:21.448Z,89.80
2017-06-04T00:59:48.081Z,89.60
2017-06-04T01:02:14.356Z,89.90
2017-06-04T01:04:41.349Z,90.40
2017-06-04T01:07:07.651Z,90.30
2017-06-04T01:09:33.892Z,90.30
2017-06-04T01:12:00.566Z,90.50
2017-06-04T01:14:26.808Z,90.50
2017-06-04T01:16:53.112Z,91.00
2017-06-04T01:19:19.408Z,90.80
2017-06-04T01:21:45.775Z,90.70
2017-06-04T01:24:13.053Z,90.40
2017-06-04T01:26:39.372Z,90.40
2017-06-04T01:29:05.589Z,90.30
2017-06-04T01:31:31.884Z,90.40
2017-06-04T01:33:58.149Z,90.20
2017-06-04T01:36:24.788Z,90.30
2017-06-04T01:38:51.061Z,90.50
2017-06-04T01:41:18.089Z,90.20
2017-06-04T01:43:44.405Z,90.10
2017-06-04T01:46:10.701Z,90.20
2017-06-04T01:48:37.358Z,90.30
2017-06-04T01:51:03.624Z,90.20
2017-06-04T01:53:29.881Z,90.20
2017-06-04T01:55:56.891Z,90.30
2017-06-04T01:58:23.148Z,90.30
2017-06-04T02:00:49.885Z,90.50
2017-06-04T02:03:16.884Z,90.50
2017-06-04T02:05:43.113Z,90.40
2017-06-04T02:08:09.727Z,90.50
2017-06-04T02:10:35.944Z,91.00
2017-06-04T02:13:02.176Z,90.80
2017-06-04T02:15:28.847Z,90.70
2017-06-04T02:17:55.124Z,90.60
2017-06-04T02:20:22.145Z,90.70
2017-06-04T02:22:48.473Z,90.30
2017-06-04T02:25:14.748Z,90.50
2017-06-04T02:27:42.116Z,90.80
2017-06-04T02:30:08.356Z,90.70
2017-06-04T02:32:34.637Z,90.40
2017-06-04T02:35:01.745Z,91.10
2017-06-04T02:37:28.076Z,90.70
2017-06-04T02:39:54.688Z,90.70
2017-06-04T02:42:21.046Z,90.70
2017-06-04T02:44:47.273Z,90.50
2017-06-04T02:47:13.532Z,90.50
2017-06-04T02:49:39.792Z,90.50
2017-06-04T02:52:07.196Z,91.20
2017-06-04T02:54:40.415Z,91.10
2017-06-04T02:57:07.936Z,91.40
2017-06-04T02:59:34.172Z,91.60
2017-06-04T03:02:00.420Z,91.70
2017-06-04T03:04:26.711Z,91.20
2017-06-04T03:06:52.991Z,91.10
2017-06-04T03:09:19.701Z,91.10
2017-06-04T03:11:46.027Z,91.00
2017-06-04T03:14:12.289Z,90.80
2017-06-04T03:16:38.569Z,91.00
2017-06-04T03:19:04.842Z,90.90
2017-06-04T03:21:31.658Z,91.00
2017-06-04T03:23:57.988Z,91.00
2017-06-04T03:26:24.248Z,91.10
2017-06-04T03:28:50.487Z,91.40
2017-06-04T03:31:17.503Z,91.10
2017-06-04T03:33:44.253Z,91.00
2017-06-04T03:36:10.561Z,90.80
2017-06-04T03:38:36.834Z,91.20
2017-06-04T03:41:03.848Z,92.00
2017-06-04T03:43:30.104Z,91.90
2017-06-04T03:45:57.496Z,91.90
2017-06-04T03:48:23.775Z,91.90
2017-06-04T03:50:50.780Z,91.50
2017-06-04T03:53:17.068Z,91.50
2017-06-04T03:55:44.056Z,91.90
2017-06-04T03:58:10.789Z,91.90
2017-06-04T04:00:37.064Z,92.10
2017-06-04T04:03:03.337Z,92.00
2017-06-04T04:05:29.632Z,92.20
2017-06-04T04:07:55.999Z,91.90
2017-06-04T04:10:22.729Z,92.30
2017-06-04T04:12:48.972Z,92.80
2017-06-04T04:15:15.278Z,93.00
2017-06-04T04:17:41.536Z,93.20
2017-06-04T04:20:07.812Z,93.00
2017-06-04T04:22:34.492Z,93.80
2017-06-04T04:25:00.740Z,94.10
2017-06-04T04:27:27.753Z,94.50
2017-06-04T04:29:54.042Z,94.50
2017-06-04T04:32:20.411Z,94.20
2017-06-04T04:34:47.147Z,94.90
2017-06-04T04:37:13.364Z,94.80
2017-06-04T04:39:39.598Z,94.80
2017-06-04T04:42:05.897Z,94.70
2017-06-04T04:44:32.170Z,95.30
2017-06-04T04:46:58.772Z,94.80
2017-06-04T04:49:25.032Z,94.90
2017-06-04T04:51:51.284Z,95.50
2017-06-04T04:54:17.552Z,95.90
2017-06-04T04:56:43.818Z,95.60
2017-06-04T04:59:10.546Z,95.40
2017-06-04T05:01:36.844Z,95.60
2017-06-04T05:04:03.118Z,95.60
2017-06-04T05:06:29.450Z,95.60
2017-06-04T05:08:55.708Z,95.30
2017-06-04T05:11:22.397Z,95.30
2017-06-04T05:13:48.644Z,95.70
2017-06-04T05:16:15.662Z,95.70
2017-06-04T05:18:41.924Z,95.70
2017-06-04T05:21:08.225Z,95.90
2017-06-04T05:23:49.839Z,95.80
2017-06-04T05:26:16.857Z,95.40
2017-06-04T05:28:49.836Z,95.40
2017-06-04T05:31:16.123Z,95.70
2017-06-04T05:33:42.437Z,95.30
2017-06-04T05:36:09.483Z,94.40
2017-06-04T05:38:35.736Z,94.40
2017-06-04T05:41:02.051Z,95.20
2017-06-04T05:43:28.660Z,95.90
2017-06-04T05:45:54.932Z,95.80
2017-06-04T05:48:21.200Z,95.70
2017-06-04T05:50:47.906Z,95.50
2017-06-04T05:53:14.188Z,95.20
2017-06-04T05:55:41.203Z,95.20
2017-06-04T05:58:07.508Z,95.20
2017-06-04T06:00:33.796Z,95.50
2017-06-04T06:03:00.464Z,95.40
2017-06-04T06:05:26.709Z,95.70
2017-06-04T06:07:53.020Z,95.50
2017-06-04T06:10:19.309Z,95.70
2017-06-04T06:12:46.332Z,96.10
2017-06-04T06:15:13.136Z,96.10
2017-06-04T06:17:39.391Z,96.60
2017-06-04T06:20:05.661Z,96.10
2017-06-04T06:22:31.949Z,96.20
2017-06-04T06:24:58.202Z,95.90
2017-06-04T06:27:24.890Z,96.60
2017-06-04T06:29:51.158Z,96.50
2017-06-04T06:32:18.145Z,96.60
2017-06-04T06:34:44.419Z,96.50
2017-06-04T06:37:11.488Z,96.60
2017-06-04T06:39:38.166Z,96.60
2017-06-04T06:42:04.461Z,96.70
2017-06-04T06:44:30.750Z,96.30
2017-06-04T06:46:57.797Z,96.20
2017-06-04T06:49:24.075Z,96.20
2017-06-04T06:51:50.700Z,96.40
2017-06-04T06:54:17.001Z,96.20
2017-06-04T06:56:43.300Z,96.50
2017-06-04T06:59:09.568Z,96.00
2017-06-04T07:01:35.829Z,96.60
2017-06-04T07:04:02.479Z,96.60
2017-06-04T07:06:28.733Z,96.50
2017-06-04T07:08:55.747Z,95.70
2017-06-04T07:11:22.033Z,95.70
2017-06-04T07:13:48.391Z,96.40
2017-06-04T07:16:15.675Z,96.00
2017-06-04T07:18:42.072Z,95.80
2017-06-04T07:21:08.581Z,95.90
2017-06-04T07:23:34.880Z,96.20
2017-06-04T07:26:01.903Z,95.90
2017-06-04T07:28:29.340Z,96.00
2017-06-04T07:30:55.655Z,95.90
2017-06-04T07:33:21.928Z,95.90
2017-06-04T07:35:48.964Z,96.10
2017-06-04T07:38:16.020Z,96.20
2017-06-04T07:40:43.429Z,96.40
2017-06-04T07:43:09.712Z,96.30
2017-06-04T07:45:36.800Z,97.00
2017-06-04T07:48:03.069Z,96.70
2017-06-04T07:50:30.804Z,95.80
2017-06-04T07:52:57.609Z,95.80
2017-06-04T07:55:24.065Z,95.50
2017-06-04T07:57:51.861Z,95.90
2017-06-04T08:00:19.892Z,95.10
2017-06-04T08:02:46.271Z,95.20
2017-06-04T08:05:14.628Z,95.20
2017-06-04T08:07:41.790Z,96.10
2017-06-04T08:10:08.107Z,96.00
2017-06-04T08:12:35.162Z,95.20
2017-06-04T08:15:02.171Z,94.60
2017-06-04T08:17:28.904Z,94.40
2017-06-04T08:19:55.172Z,95.40
2017-06-04T08:22:22.173Z,95.30
2017-06-04T08:24:48.489Z,94.90
2017-06-04T08:27:14.761Z,95.40
2017-06-04T08:29:42.191Z,95.00
2017-06-04T08:32:08.434Z,94.90
2017-06-04T08:34:34.836Z,95.20
2017-06-04T08:37:01.109Z,95.10
2017-06-04T08:39:28.131Z,95.90
2017-06-04T08:41:54.845Z,95.70
2017-06-04T08:44:21.142Z,95.70
2017-06-04T08:46:47.428Z,95.10
2017-06-04T08:49:14.467Z,95.70
2017-06-04T08:51:40.733Z,95.40
2017-06-04T08:54:08.124Z,95.60
2017-06-04T08:56:34.380Z,95.50
2017-06-04T08:59:00.687Z,95.70
2017-06-04T09:01:27.109Z,96.00
2017-06-04T09:03:53.370Z,95.90
2017-06-04T09:06:19.629Z,96.20
2017-06-04T09:08:45.944Z,95.60
2017-06-04T09:11:12.211Z,94.90
2017-06-04T09:13:38.503Z,95.00
2017-06-04T09:16:05.150Z,94.50
2017-06-04T09:18:31.511Z,94.50
2017-06-04T09:20:57.791Z,94.70
2017-06-04T09:23:24.124Z,95.00
2017-06-04T09:25:51.150Z,95.70
2017-06-04T09:28:18.668Z,95.50
2017-06-04T09:30:45.072Z,95.40
2017-06-04T09:33:11.328Z,94.70
2017-06-04T09:35:37.663Z,95.10
2017-06-04T09:38:03.968Z,93.80
2017-06-04T09:40:30.637Z,92.80
2017-06-04T09:42:57.718Z,92.60
2017-06-04T09:45:24.036Z,92.50
2017-06-04T09:47:50.340Z,92.40
2017-06-04T09:50:16.618Z,91.10
2017-06-04T09:52:43.382Z,91.50
2017-06-04T09:55:10.913Z,92.20
2017-06-04T09:57:37.700Z,92.80
2017-06-04T10:00:04.751Z,92.40
2017-06-04T10:02:31.761Z,92.70
2017-06-04T10:04:58.517Z,92.70
2017-06-04T10:07:25.012Z,92.50
2017-06-04T10:09:51.280Z,92.30
2017-06-04T10:12:17.598Z,92.70
2017-06-04T10:14:43.909Z,93.30
2017-06-04T10:17:10.560Z,93.70
2017-06-04T10:19:36.950Z,93.00
2017-06-04T10:22:03.228Z,93.30
2017-06-04T10:24:29.523Z,93.30
2017-06-04T10:26:56.040Z,93.80
2017-06-04T10:29:22.649Z,94.20
2017-06-04T10:31:49.700Z,94.80
2017-06-04T10:34:16.004Z,94.70
2017-06-04T10:36:42.290Z,94.80
2017-06-04T10:39:08.548Z,95.90
2017-06-04T10:41:35.276Z,94.20
2017-06-04T10:44:01.557Z,94.20
2017-06-04T10:46:27.852Z,93.00
2017-06-04T10:48:54.166Z,92.60
2017-06-04T10:51:20.583Z,93.20
2017-06-04T10:53:47.315Z,93.50
2017-06-04T10:56:13.599Z,93.20
2017-06-04T10:58:40.594Z,94.00
2017-06-04T11:01:06.906Z,94.00
2017-06-04T11:03:33.201Z,92.60
2017-06-04T11:06:00.758Z,92.60
2017-06-04T11:08:27.797Z,93.70
2017-06-04T11:10:54.057Z,93.70
2017-06-04T11:13:20.384Z,94.20
2017-06-04T11:15:46.701Z,94.00
2017-06-04T11:18:13.391Z,93.40
2017-06-04T11:20:40.399Z,93.10
2017-06-04T11:23:06.724Z,92.80
2017-06-04T11:25:33.016Z,93.10
2017-06-04T11:27:59.300Z,93.10
2017-06-04T11:30:25.971Z,93.30
2017-06-04T11:32:52.275Z,93.50
2017-06-04T11:35:18.515Z,93.20
2017-06-04T11:37:44.913Z,93.20
2017-06-04T11:40:11.180Z,92.60
2017-06-04T11:42:38.588Z,93.10
2017-06-04T11:45:04.880Z,93.10
2017-06-04T11:47:31.896Z,92.30
2017-06-04T11:49:58.913Z,93.40
2017-06-04T11:52:25.216Z,93.20
2017-06-04T11:54:51.877Z,93.00
2017-06-04T11:57:18.160Z,92.00
2017-06-04T11:59:44.508Z,92.00
2017-06-04T12:02:10.797Z,92.30
2017-06-04T12:04:37.092Z,92.00
2017-06-04T12:07:03.809Z,93.10
2017-06-04T12:09:30.082Z,92.20
2017-06-04T12:11:56.328Z,92.00
2017-06-04T12:14:22.704Z,91.90
2017-06-04T12:16:48.980Z,92.00
2017-06-04T12:19:16.382Z,91.80
2017-06-04T12:21:42.684Z,91.80
2017-06-04T12:24:08.949Z,91.30
2017-06-04T12:26:35.701Z,90.90
2017-06-04T12:29:02.720Z,91.80
2017-06-04T12:31:28.986Z,91.60
2017-06-04T12:33:56.182Z,91.40
2017-06-04T12:36:22.481Z,90.90
2017-06-04T12:38:49.492Z,90.40
2017-06-04T12:41:15.767Z,90.40
2017-06-04T12:43:42.097Z,90.20
2017-06-04T12:46:08.765Z,90.90
2017-06-04T12:48:35.065Z,91.00
2017-06-04T12:51:01.340Z,91.10
2017-06-04T12:53:27.658Z,91.10
2017-06-04T12:55:53.907Z,90.50
2017-06-04T12:58:21.323Z,91.10
2017-06-04T13:00:47.634Z,91.10
2017-06-04T13:03:13.948Z,91.10
2017-06-04T13:05:40.248Z,90.80
2017-06-04T13:08:07.275Z,91.00
2017-06-04T13:10:34.088Z,91.00
2017-06-04T13:13:00.346Z,91.00
2017-06-04T13:15:26.635Z,90.40
2017-06-04T13:17:52.919Z,90.90
2017-06-04T13:20:19.213Z,89.80
2017-06-04T13:22:45.816Z,90.00
2017-06-04T13:25:12.081Z,88.10
2017-06-04T13:27:38.351Z,88.60
2017-06-04T13:30:04.646Z,87.10
2017-06-04T13:32:31.677Z,83.30
2017-06-04T13:34:58.371Z,82.40
2017-06-04T13:37:25.163Z,80.40
2017-06-04T13:39:52.189Z,79.10
2017-06-04T13:42:18.497Z,78.80
2017-06-04T13:44:44.764Z,79.20
2017-06-04T13:47:11.473Z,77.40
2017-06-04T13:49:37.758Z,76.90
2017-06-04T13:52:04.046Z,77.90
2017-06-04T13:54:31.088Z,76.10
2017-06-04T13:56:58.140Z,72.80
2017-06-04T13:59:24.767Z,72.80
2017-06-04T14:01:51.049Z,72.10
2017-06-04T14:04:17.329Z,70.60
2017-06-04T14:06:43.612Z,70.20
2017-06-04T14:09:09.908Z,69.60
2017-06-04T14:11:37.289Z,65.60
2017-06-04T14:14:03.567Z,65.50
2017-06-04T14:16:29.817Z,66.70
2017-06-04T14:18:56.144Z,67.60
2017-06-04T14:21:22.426Z,62.70
2017-06-04T14:23:49.181Z,62.50
2017-06-04T14:26:16.194Z,62.50
2017-06-04T14:28:42.503Z,62.40
2017-06-04T14:31:09.641Z,59.50
2017-06-04T14:33:35.914Z,59.00
2017-06-04T14:36:02.638Z,61.90
2017-06-04T14:38:28.899Z,61.50
2017-06-04T14:40:55.176Z,61.30
2017-06-04T14:43:21.494Z,62.30
2017-06-04T14:45:47.837Z,61.00
2017-06-04T14:48:14.593Z,61.00
2017-06-04T14:50:40.890Z,59.90
2017-06-04T14:53:07.174Z,61.70
2017-06-04T14:55:33.455Z,61.50
2017-06-04T14:57:59.736Z,59.70
2017-06-04T15:00:27.140Z,58.00
2017-06-04T15:02:53.416Z,57.90
2017-06-04T15:05:20.451Z,54.10
2017-06-04T15:07:46.737Z,53.90
2017-06-04T15:10:13.056Z,55.20
2017-06-04T15:12:39.716Z,57.80
2017-06-04T15:15:05.989Z,57.80
2017-06-04T15:17:33.041Z,52.80
2017-06-04T15:19:59.335Z,52.70
2017-06-04T15:22:25.590Z,51.50
2017-06-04T15:24:52.976Z,48.40
2017-06-04T15:27:19.292Z,47.70
2017-06-04T15:29:45.559Z,46.40
2017-06-04T15:32:11.879Z,45.10
2017-06-04T15:34:38.169Z,41.20
2017-06-04T15:37:04.532Z,40.40
2017-06-04T15:39:31.261Z,44.70
2017-06-04T15:41:57.626Z,47.10
2017-06-04T15:44:23.960Z,48.00
2017-06-04T15:46:50.561Z,47.80
2017-06-04T15:49:16.832Z,45.50
2017-06-04T15:51:43.113Z,46.10
2017-06-04T15:54:09.417Z,45.50
2017-06-04T15:56:35.710Z,44.50
2017-06-04T15:59:02.407Z,45.50
2017-06-04T16:01:28.737Z,42.30
2017-06-04T16:03:55.013Z,42.80
2017-06-04T16:06:22.050Z,42.00
2017-06-04T16:08:48.365Z,42.00
2017-06-04T16:11:15.089Z,41.10
2017-06-04T16:13:41.368Z,39.40
2017-06-04T16:16:07.642Z,41.40
2017-06-04T16:18:33.940Z,43.80
2017-06-04T16:21:00.213Z,41.40
2017-06-04T16:23:26.919Z,42.70
2017-06-04T16:25:53.177Z,41.80
2017-06-04T16:28:19.476Z,41.90
2017-06-04T16:30:45.797Z,40.40
2017-06-04T16:33:12.128Z,40.80
2017-06-04T16:35:38.872Z,39.00
2017-06-04T16:38:05.147Z,39.70
2017-06-04T16:40:31.524Z,40.20
2017-06-04T16:42:57.851Z,39.80
2017-06-04T16:45:24.108Z,40.60
2017-06-04T16:47:50.829Z,40.90
2017-06-04T16:50:17.116Z,40.60
2017-06-04T16:52:43.408Z,40.60
2017-06-04T16:55:09.807Z,40.10
2017-06-04T16:57:36.130Z,39.80
2017-06-04T17:00:02.757Z,40.00
2017-06-04T17:02:29.028Z,39.60
2017-06-04T17:04:55.320Z,41.80
2017-06-04T17:07:21.624Z,41.10
2017-06-04T17:09:47.908Z,38.40
2017-06-04T17:12:14.592Z,39.10
2017-06-04T17:14:40.841Z,40.50
2017-06-04T17:17:07.109Z,40.30
2017-06-04T17:19:34.173Z,41.50
2017-06-04T17:22:00.429Z,41.40
2017-06-04T17:24:27.182Z,42.70
2017-06-04T17:26:53.464Z,42.90
2017-06-04T17:29:19.732Z,41.20
2017-06-04T17:31:46.013Z,39.80
2017-06-04T17:34:13.018Z,40.10
2017-06-04T17:36:39.684Z,40.00
2017-06-04T17:39:06.067Z,39.90
2017-06-04T17:41:32.341Z,40.00
2017-06-04T17:43:59.366Z,40.80
2017-06-04T17:46:26.468Z,42.10
2017-06-04T17:48:53.101Z,42.00
2017-06-04T17:51:19.383Z,40.90
2017-06-04T17:53:45.660Z,42.10
2017-06-04T17:56:12.003Z,45.90
2017-06-04T17:58:38.284Z,42.00
2017-06-04T18:01:04.975Z,42.80
2017-06-04T18:03:31.277Z,41.10
2017-06-04T18:05:57.532Z,40.30
2017-06-04T18:08:23.846Z,39.80
2017-06-04T18:10:50.142Z,42.30
2017-06-04T18:13:16.855Z,40.50
2017-06-04T18:15:43.172Z,40.90
2017-06-04T18:18:10.197Z,41.80
2017-06-04T18:20:36.512Z,41.60
2017-06-04T18:23:02.800Z,44.80
2017-06-04T18:25:29.467Z,44.60
2017-06-04T18:27:55.753Z,46.00
2017-06-04T18:30:22.239Z,45.20
2017-06-04T18:32:48.561Z,45.20
2017-06-04T18:35:14.872Z,47.90
2017-06-04T18:37:41.151Z,46.60
2017-06-04T18:40:07.959Z,47.20
2017-06-04T18:42:34.302Z,48.50
2017-06-04T18:45:00.561Z,48.90
2017-06-04T18:47:27.245Z,52.10
2017-06-04T18:49:55.697Z,52.40
2017-06-04T18:52:22.940Z,52.60
2017-06-04T18:54:49.280Z,54.20
2017-06-04T18:57:15.588Z,57.30
2017-06-04T18:59:42.257Z,59.60
2017-06-04T19:02:08.813Z,56.70
2017-06-04T19:04:35.885Z,59.10
2017-06-04T19:07:02.929Z,55.90
2017-06-04T19:09:29.273Z,55.80
2017-06-04T19:11:56.057Z,55.60
2017-06-04T19:14:22.324Z,56.00
2017-06-04T19:16:49.377Z,58.10
2017-06-04T19:19:15.728Z,58.00
2017-06-04T19:21:42.014Z,59.40
2017-06-04T19:24:08.769Z,58.60
2017-06-04T19:26:35.102Z,60.00
2017-06-04T19:29:01.448Z,61.30
2017-06-04T19:31:27.814Z,60.60
2017-06-04T19:33:54.109Z,58.80
2017-06-04T19:36:20.791Z,59.40
2017-06-04T19:38:47.078Z,60.60
2017-06-04T19:41:13.347Z,61.90
2017-06-04T19:43:39.633Z,60.70
2017-06-04T19:46:05.924Z,61.70
2017-06-04T19:48:33.347Z,65.10
2017-06-04T19:50:59.623Z,64.90
2017-06-04T19:53:25.975Z,64.30
2017-06-04T19:55:52.305Z,63.00
2017-06-04T19:58:18.592Z,65.50
2017-06-04T20:00:45.206Z,65.50
2017-06-04T20:03:12.273Z,64.60
2017-06-04T20:05:39.329Z,64.70
2017-06-04T20:08:05.620Z,64.60
2017-06-04T20:10:31.905Z,66.80
2017-06-04T20:12:58.875Z,67.10
2017-06-04T20:15:25.124Z,68.00
2017-06-04T20:17:52.052Z,67.40
2017-06-04T20:20:18.361Z,66.80
2017-06-04T20:22:44.659Z,65.70
2017-06-04T20:25:11.335Z,64.70
2017-06-04T20:27:37.632Z,63.80
2017-06-04T20:30:03.885Z,64.20
2017-06-04T20:32:30.194Z,66.10
2017-06-04T20:34:56.446Z,66.00
2017-06-04T20:37:23.036Z,67.50
2017-06-04T20:39:50.134Z,69.20
2017-06-04T20:42:16.426Z,69.10
2017-06-04T20:44:42.721Z,69.70
2017-06-04T20:47:09.034Z,70.10
2017-06-04T20:49:35.636Z,70.10
2017-06-04T20:52:01.939Z,69.50
2017-06-04T20:54:28.960Z,71.00
2017-06-04T20:56:55.277Z,70.80
2017-06-04T20:59:21.555Z,72.20
2017-06-04T21:01:48.181Z,71.90
2017-06-04T21:04:14.437Z,71.00
2017-06-04T21:06:40.695Z,69.70
2017-06-04T21:09:07.015Z,67.40
2017-06-04T21:11:33.276Z,70.80
2017-06-04T21:14:00.631Z,69.20
2017-06-04T21:16:27.644Z,69.60
2017-06-04T21:18:53.916Z,69.50
2017-06-04T21:21:20.181Z,70.40
2017-06-04T21:23:46.501Z,69.10
2017-06-04T21:26:13.141Z,71.10
2017-06-04T21:28:39.404Z,72.40
2017-06-04T21:31:06.445Z,72.10
2017-06-04T21:33:33.482Z,72.00
2017-06-04T21:35:59.765Z,71.90
2017-06-04T21:38:27.048Z,72.10
2017-06-04T21:40:53.349Z,72.00
2017-06-04T21:43:20.680Z,73.20
2017-06-04T21:45:46.972Z,73.50
2017-06-04T21:48:13.369Z,73.30
2017-06-04T21:50:39.668Z,71.10
2017-06-04T21:53:06.016Z,72.20
2017-06-04T21:55:32.336Z,73.70
2017-06-04T21:57:59.464Z,72.50
2017-06-04T22:00:26.170Z,71.60
2017-06-04T22:02:53.692Z,72.90
2017-06-04T22:05:19.957Z,72.80
2017-06-04T22:07:47.019Z,74.40
2017-06-04T22:10:13.317Z,74.30
2017-06-04T22:12:40.027Z,75.20
2017-06-04T22:15:06.273Z,74.90
2017-06-04T22:17:32.520Z,75.60
2017-06-04T22:19:59.575Z,74.40
2017-06-04T22:22:26.587Z,74.10
2017-06-04T22:24:53.225Z,74.10
2017-06-04T22:27:19.634Z,73.70
2017-06-04T22:29:45.959Z,73.40
2017-06-04T22:32:12.244Z,72.70
2017-06-04T22:34:39.253Z,71.50
2017-06-04T22:37:05.973Z,70.60
2017-06-04T22:39:32.265Z,72.60
2017-06-04T22:41:58.508Z,74.50
2017-06-04T22:44:24.786Z,76.40
2017-06-04T22:46:51.061Z,76.70
2017-06-04T22:49:17.701Z,75.60
2017-06-04T22:51:44.049Z,73.50
2017-06-04T22:54:10.304Z,73.80
2017-06-04T22:56:36.564Z,76.50
2017-06-04T22:59:02.870Z,75.60
2017-06-04T23:01:30.292Z,75.10
2017-06-04T23:03:56.552Z,75.10
2017-06-04T23:06:23.524Z,77.00
2017-06-04T23:08:50.436Z,76.90
2017-06-04T23:11:17.442Z,75.00
2017-06-04T23:13:44.176Z,74.80
2017-06-04T23:16:10.456Z,76.80
2017-06-04T23:18:36.718Z,78.60
2017-06-04T23:21:02.997Z,78.00
2017-06-04T23:23:30.032Z,77.80
2017-06-04T23:25:56.721Z,77.60
2017-06-04T23:28:22.984Z,77.40
2017-06-04T23:30:49.232Z,78.50
2017-06-04T23:33:16.254Z,78.80
2017-06-04T23:35:42.539Z,78.70
2017-06-04T23:38:09.185Z,78.80
2017-06-04T23:40:35.451Z,78.40
2017-06-04T23:43:01.697Z,77.10
2017-06-04T23:45:28.756Z,76.30
2017-06-04T23:47:55.087Z,75.70
2017-06-04T23:50:21.769Z,75.80
2017-06-04T23:52:48.039Z,76.10
2017-06-04T23:55:15.098Z,76.90
2017-06-04T23:57:41.499Z,76.70
